Terminal Aerodrome Forecast
Issued by NWS

Home | Current Version | Previous Version | Text Only | Print | Product List | Glossary On
Versions: 1 2 3 4 5 6 7 8 9 10 11 12 13
598
FTUS43 KILX 231722
TAFCMI
TAF
KCMI 231722Z 2318/2418 21010G20KT P6SM SCT250
     FM240000 18005KT P6SM SCT250=

USA.gov is the U.S. government's official web portal to all federal, state and local government web resources and services.